Laughlin Air Force Base
KDLF : now visible

Airfield :











YOU CAN JOIN US ON...

 
LOGIN :

Register | Disclaimer

   EN    FR    IT 

 









Legend :    VFR   Marginal VFR   IFR   Intensive IFR   Very Intensive IFR
Visi :
Ceiling :
>= 8 km
>= 3000ft
5 to 8 km
1000 to 3000 ft
1500m to 5 km
500 to 1000 ft
800 to 1500m
200 to 500 ft
< 800m
< 200 ft
Symbols :   Thunderstorms  Fog  Heavy snow  Heavy precipitations  Wind > 20 kt






- Airport Elevation : 1082 ft


KDLF - Laughlin Air Force Base

CURRENT METAR :
  • 181355Z AUTO 12009KT 10SM OVC010 24/22 A2990 RMK AO2 SLP114 T02400215 $

EXPIRED METARs :
  • 181328Z 11009KT 10SM OVC009 24/21 A2989 RMK AO2A SLP110 $
  • 181255Z AUTO 11007KT 10SM OVC010 23/21 A2988 RMK AO2 SLP108 T02340213 $
  • 181155Z AUTO 10006KT 10SM OVC012 23/21 A2986 RMK AO2 SLP099 70006 T02320211 10247 20229 52006 $
  • 181055Z AUTO 11008KT 10SM BKN014 23/21 A2985 RMK AO2 SLP095 T02320209 $
  • 181040Z AUTO 11008KT 10SM BKN014 23/21 A2985 RMK AO2 SLP095 $
  • 180955Z AUTO 11008KT 10SM SCT032 23/21 A2984 RMK AO2 SLP091 T02330210 $

TAF AMD TAF KDLF
Valid from the 18 at 13:00 until the 19 at 17:00 UTC


181300Z 1813/1917 10008KT 9999 BKN012 BKN030 QNH2986INS
TEMPO 1813/1815 BKN009
BECMG 1815/1816 12012KT 9999 BKN020 QNH2988INS
BECMG 1818/1819 15012G18KT 9999 VCSH SCT040 QNH2976INS WND 13009KT AFT 1905
TEMPO 1822/1903 VRB20G35KT 6000 -TSRAGR BKN030CB
BECMG 1910/1911 11008KT 9999 NSW BKN012 QNH2985INS
TEMPO 1912/1915 8000 -DZ BR BKN007
BECMG 1916/1917 14012KT 9999 BKN020 SCT200 QNH2995INS TX35/1821Z TN21/1911Z
KZHU FIR / North America



MET'MAP, your aeronautical weather chart ! - Copyright ORBIFLY December 2007 - Disclaimer

ORBIFLY MET'MAP TEAM :

Programming & Development : Alexandra Zaïnal
Original concept : Baudouin d'Aumeries
Technical & hardware support : Manuel Goepfert
Assistance : Marc-Olivier Méhu




SOURCES & CREDITS :

   NOAA       Earth
Advisory